sensor_id;sensor_type;location;lat;lon;timestamp;P1;durP1;ratioP1;P2;durP2;ratioP2
13240;SDS011;6687;47.790;7.322;2024-02-23T06:19:14;0.40;;;0.40;;
13240;SDS011;6687;47.790;7.322;2024-02-23T06:21:40;0.50;;;0.50;;
13240;SDS011;6687;47.790;7.322;2024-02-23T06:24:07;0.20;;;0.20;;
13240;SDS011;6687;47.790;7.322;2024-02-23T06:26:34;0.47;;;0.22;;
13240;SDS011;6687;47.790;7.322;2024-02-23T06:29:01;0.28;;;0.28;;
13240;SDS011;6687;47.790;7.322;2024-02-23T06:31:28;0.43;;;0.43;;
13240;SDS011;6687;47.790;7.322;2024-02-23T06:33:55;0.43;;;0.43;;
13240;SDS011;6687;47.790;7.322;2024-02-23T06:36:23;0.17;;;0.17;;
13240;SDS011;6687;47.790;7.322;2024-02-23T06:38:50;0.30;;;0.30;;
13240;SDS011;6687;47.790;7.322;2024-02-23T06:41:17;0.30;;;0.30;;
13240;SDS011;6687;47.790;7.322;2024-02-23T06:43:44;0.10;;;0.10;;
13240;SDS011;6687;47.790;7.322;2024-02-23T06:46:11;0.13;;;0.13;;
13240;SDS011;6687;47.790;7.322;2024-02-23T06:48:38;0.77;;;0.77;;
13240;SDS011;6687;47.790;7.322;2024-02-23T06:51:05;0.30;;;0.30;;
13240;SDS011;6687;47.790;7.322;2024-02-23T06:53:35;0.57;;;0.57;;
13240;SDS011;6687;47.790;7.322;2024-02-23T06:56:03;3.53;;;0.85;;
13240;SDS011;6687;47.790;7.322;2024-02-23T06:58:30;0.38;;;0.38;;
13240;SDS011;6687;47.790;7.322;2024-02-23T07:00:57;1.27;;;0.43;;
13240;SDS011;6687;47.790;7.322;2024-02-23T07:03:23;0.13;;;0.13;;
13240;SDS011;6687;47.790;7.322;2024-02-23T07:05:50;0.73;;;0.63;;
13240;SDS011;6687;47.790;7.322;2024-02-23T07:08:17;0.30;;;0.30;;
13240;SDS011;6687;47.790;7.322;2024-02-23T07:10:45;0.22;;;0.22;;
13240;SDS011;6687;47.790;7.322;2024-02-23T07:13:12;0.73;;;0.40;;
13240;SDS011;6687;47.790;7.322;2024-02-23T07:15:39;0.45;;;0.45;;
13240;SDS011;6687;47.790;7.322;2024-02-23T07:18:05;0.22;;;0.22;;
13240;SDS011;6687;47.790;7.322;2024-02-23T07:20:35;0.63;;;0.63;;
13240;SDS011;6687;47.790;7.322;2024-02-23T07:23:01;0.00;;;0.00;;
13240;SDS011;6687;47.790;7.322;2024-02-23T07:25:28;0.50;;;0.50;;
13240;SDS011;6687;47.790;7.322;2024-02-23T07:27:56;0.05;;;0.05;;
13240;SDS011;6687;47.790;7.322;2024-02-23T07:30:23;0.52;;;0.30;;
13240;SDS011;6687;47.790;7.322;2024-02-23T07:32:50;0.32;;;0.30;;
13240;SDS011;6687;47.790;7.322;2024-02-23T07:35:16;0.73;;;0.73;;
13240;SDS011;6687;47.790;7.322;2024-02-23T07:37:43;0.30;;;0.30;;
13240;SDS011;6687;47.790;7.322;2024-02-23T07:40:10;0.30;;;0.30;;
13240;SDS011;6687;47.790;7.322;2024-02-23T07:42:38;0.25;;;0.25;;
13240;SDS011;6687;47.790;7.322;2024-02-23T07:45:06;0.35;;;0.35;;
13240;SDS011;6687;47.790;7.322;2024-02-23T07:47:34;0.40;;;0.35;;
13240;SDS011;6687;47.790;7.322;2024-02-23T07:50:01;0.20;;;0.10;;
13240;SDS011;6687;47.790;7.322;2024-02-23T07:52:27;0.20;;;0.20;;
13240;SDS011;6687;47.790;7.322;2024-02-23T07:54:54;0.00;;;0.00;;
13240;SDS011;6687;47.790;7.322;2024-02-23T07:57:21;0.20;;;0.20;;
13240;SDS011;6687;47.790;7.322;2024-02-23T07:59:47;0.10;;;0.10;;
13240;SDS011;6687;47.790;7.322;2024-02-23T08:02:16;0.10;;;0.10;;
13240;SDS011;6687;47.790;7.322;2024-02-23T08:04:42;0.22;;;0.22;;
13240;SDS011;6687;47.790;7.322;2024-02-23T08:07:09;0.35;;;0.30;;
13240;SDS011;6687;47.790;7.322;2024-02-23T08:09:36;0.10;;;0.10;;
13240;SDS011;6687;47.790;7.322;2024-02-23T08:12:03;0.20;;;0.20;;
13240;SDS011;6687;47.790;7.322;2024-02-23T08:14:30;0.30;;;0.30;;
13240;SDS011;6687;47.790;7.322;2024-02-23T08:16:58;0.10;;;0.10;;
13240;SDS011;6687;47.790;7.322;2024-02-23T08:19:26;1.25;;;0.20;;
13240;SDS011;6687;47.790;7.322;2024-02-23T08:21:52;0.10;;;0.10;;
13240;SDS011;6687;47.790;7.322;2024-02-23T08:24:19;0.10;;;0.10;;
13240;SDS011;6687;47.790;7.322;2024-02-23T08:26:46;0.52;;;0.30;;
13240;SDS011;6687;47.790;7.322;2024-02-23T08:29:13;0.50;;;0.50;;
13240;SDS011;6687;47.790;7.322;2024-02-23T08:31:40;1.10;;;0.40;;
13240;SDS011;6687;47.790;7.322;2024-02-23T08:34:06;1.25;;;0.40;;
13240;SDS011;6687;47.790;7.322;2024-02-23T08:36:34;0.10;;;0.10;;
13240;SDS011;6687;47.790;7.322;2024-02-23T08:39:01;0.15;;;0.15;;
13240;SDS011;6687;47.790;7.322;2024-02-23T08:41:28;0.22;;;0.10;;
13240;SDS011;6687;47.790;7.322;2024-02-23T08:43:55;0.22;;;0.20;;
13240;SDS011;6687;47.790;7.322;2024-02-23T08:46:21;0.28;;;0.28;;
13240;SDS011;6687;47.790;7.322;2024-02-23T08:48:48;1.02;;;0.25;;
13240;SDS011;6687;47.790;7.322;2024-02-23T08:51:15;0.52;;;0.52;;
13240;SDS011;6687;47.790;7.322;2024-02-23T08:53:43;0.52;;;0.40;;
13240;SDS011;6687;47.790;7.322;2024-02-23T08:56:10;0.77;;;0.65;;
13240;SDS011;6687;47.790;7.322;2024-02-23T08:58:37;0.52;;;0.40;;
13240;SDS011;6687;47.790;7.322;2024-02-23T09:01:04;1.00;;;0.80;;
13240;SDS011;6687;47.790;7.322;2024-02-23T09:03:30;0.13;;;0.13;;
13240;SDS011;6687;47.790;7.322;2024-02-23T09:05:57;0.38;;;0.38;;
13240;SDS011;6687;47.790;7.322;2024-02-23T09:08:24;0.55;;;0.55;;
13240;SDS011;6687;47.790;7.322;2024-02-23T09:10:52;0.38;;;0.35;;
13240;SDS011;6687;47.790;7.322;2024-02-23T09:13:19;1.33;;;0.70;;
13240;SDS011;6687;47.790;7.322;2024-02-23T09:15:45;0.80;;;0.40;;
13240;SDS011;6687;47.790;7.322;2024-02-23T09:18:12;0.10;;;0.10;;
13240;SDS011;6687;47.790;7.322;2024-02-23T09:20:39;0.65;;;0.28;;
13240;SDS011;6687;47.790;7.322;2024-02-23T09:23:06;0.20;;;0.15;;
13240;SDS011;6687;47.790;7.322;2024-02-23T09:25:32;1.20;;;0.38;;
13240;SDS011;6687;47.790;7.322;2024-02-23T09:28:00;0.43;;;0.43;;
13240;SDS011;6687;47.790;7.322;2024-02-23T09:30:28;0.38;;;0.38;;
13240;SDS011;6687;47.790;7.322;2024-02-23T09:32:54;0.40;;;0.35;;
13240;SDS011;6687;47.790;7.322;2024-02-23T09:35:21;0.70;;;0.52;;
13240;SDS011;6687;47.790;7.322;2024-02-23T09:37:48;0.22;;;0.22;;
13240;SDS011;6687;47.790;7.322;2024-02-23T09:40:14;0.13;;;0.13;;
13240;SDS011;6687;47.790;7.322;2024-02-23T09:42:42;0.03;;;0.03;;
13240;SDS011;6687;47.790;7.322;2024-02-23T09:45:10;0.10;;;0.10;;
13240;SDS011;6687;47.790;7.322;2024-02-23T09:47:38;0.20;;;0.20;;
13240;SDS011;6687;47.790;7.322;2024-02-23T09:50:07;1.13;;;0.30;;
13240;SDS011;6687;47.790;7.322;2024-02-23T09:52:35;0.20;;;0.20;;
13240;SDS011;6687;47.790;7.322;2024-02-23T09:55:03;0.28;;;0.28;;
13240;SDS011;6687;47.790;7.322;2024-02-23T09:57:29;0.32;;;0.32;;
13240;SDS011;6687;47.790;7.322;2024-02-23T09:59:56;0.98;;;0.57;;
13240;SDS011;6687;47.790;7.322;2024-02-23T10:02:25;0.10;;;0.10;;
13240;SDS011;6687;47.790;7.322;2024-02-23T10:04:52;0.25;;;0.25;;
13240;SDS011;6687;47.790;7.322;2024-02-23T10:07:22;0.70;;;0.60;;
13240;SDS011;6687;47.790;7.322;2024-02-23T10:09:51;0.13;;;0.03;;
13240;SDS011;6687;47.790;7.322;2024-02-23T10:12:18;0.20;;;0.20;;
13240;SDS011;6687;47.790;7.322;2024-02-23T10:14:45;0.30;;;0.28;;
13240;SDS011;6687;47.790;7.322;2024-02-23T10:17:12;0.25;;;0.25;;
13240;SDS011;6687;47.790;7.322;2024-02-23T10:19:40;0.40;;;0.40;;
13240;SDS011;6687;47.790;7.322;2024-02-23T10:22:07;0.25;;;0.25;;
13240;SDS011;6687;47.790;7.322;2024-02-23T10:24:33;0.70;;;0.70;;
13240;SDS011;6687;47.790;7.322;2024-02-23T10:27:00;0.20;;;0.20;;
13240;SDS011;6687;47.790;7.322;2024-02-23T10:29:27;0.15;;;0.15;;
13240;SDS011;6687;47.790;7.322;2024-02-23T10:31:54;0.17;;;0.17;;
13240;SDS011;6687;47.790;7.322;2024-02-23T10:34:23;0.10;;;0.10;;
13240;SDS011;6687;47.790;7.322;2024-02-23T10:36:52;0.28;;;0.28;;
13240;SDS011;6687;47.790;7.322;2024-02-23T10:39:20;0.85;;;0.38;;
13240;SDS011;6687;47.790;7.322;2024-02-23T10:41:52;0.30;;;0.20;;
13240;SDS011;6687;47.790;7.322;2024-02-23T10:44:23;0.08;;;0.00;;
13240;SDS011;6687;47.790;7.322;2024-02-23T10:46:51;0.10;;;0.10;;
13240;SDS011;6687;47.790;7.322;2024-02-23T10:49:19;0.15;;;0.15;;
13240;SDS011;6687;47.790;7.322;2024-02-23T10:51:53;0.10;;;0.10;;
13240;SDS011;6687;47.790;7.322;2024-02-23T10:54:20;0.20;;;0.20;;
13240;SDS011;6687;47.790;7.322;2024-02-23T10:56:48;0.20;;;0.20;;
13240;SDS011;6687;47.790;7.322;2024-02-23T10:59:16;0.10;;;0.10;;
13240;SDS011;6687;47.790;7.322;2024-02-23T11:01:44;0.43;;;0.30;;
13240;SDS011;6687;47.790;7.322;2024-02-23T11:04:14;0.32;;;0.32;;
13240;SDS011;6687;47.790;7.322;2024-02-23T11:06:42;0.32;;;0.32;;
13240;SDS011;6687;47.790;7.322;2024-02-23T11:09:12;0.00;;;0.00;;
13240;SDS011;6687;47.790;7.322;2024-02-23T11:11:39;0.00;;;0.00;;
13240;SDS011;6687;47.790;7.322;2024-02-23T11:14:07;0.80;;;0.80;;
13240;SDS011;6687;47.790;7.322;2024-02-23T11:16:38;1.25;;;0.32;;
13240;SDS011;6687;47.790;7.322;2024-02-23T11:19:06;0.28;;;0.28;;
13240;SDS011;6687;47.790;7.322;2024-02-23T11:21:34;0.10;;;0.10;;
13240;SDS011;6687;47.790;7.322;2024-02-23T11:24:02;0.00;;;0.00;;
13240;SDS011;6687;47.790;7.322;2024-02-23T11:26:31;1.45;;;0.00;;
13240;SDS011;6687;47.790;7.322;2024-02-23T11:28:58;0.03;;;0.03;;
13240;SDS011;6687;47.790;7.322;2024-02-23T11:31:28;0.28;;;0.28;;
13240;SDS011;6687;47.790;7.322;2024-02-23T11:33:56;0.10;;;0.10;;
13240;SDS011;6687;47.790;7.322;2024-02-23T11:36:23;0.30;;;0.30;;
13240;SDS011;6687;47.790;7.322;2024-02-23T11:38:53;0.85;;;0.40;;
13240;SDS011;6687;47.790;7.322;2024-02-23T11:41:22;0.20;;;0.20;;
13240;SDS011;6687;47.790;7.322;2024-02-23T11:43:51;0.38;;;0.38;;
13240;SDS011;6687;47.790;7.322;2024-02-23T11:46:18;0.03;;;0.03;;
13240;SDS011;6687;47.790;7.322;2024-02-23T11:48:45;0.00;;;0.00;;
13240;SDS011;6687;47.790;7.322;2024-02-23T11:51:18;0.30;;;0.30;;
13240;SDS011;6687;47.790;7.322;2024-02-23T11:53:45;0.15;;;0.15;;
13240;SDS011;6687;47.790;7.322;2024-02-23T11:56:12;0.00;;;0.00;;
13240;SDS011;6687;47.790;7.322;2024-02-23T11:58:39;0.75;;;0.47;;
13240;SDS011;6687;47.790;7.322;2024-02-23T12:01:08;0.10;;;0.10;;
13240;SDS011;6687;47.790;7.322;2024-02-23T12:03:35;0.00;;;0.00;;
13240;SDS011;6687;47.790;7.322;2024-02-23T12:06:03;0.17;;;0.10;;
13240;SDS011;6687;47.790;7.322;2024-02-23T12:08:31;0.55;;;0.15;;
13240;SDS011;6687;47.790;7.322;2024-02-23T12:11:03;0.15;;;0.15;;
13240;SDS011;6687;47.790;7.322;2024-02-23T12:13:30;0.30;;;0.30;;
13240;SDS011;6687;47.790;7.322;2024-02-23T12:15:56;0.08;;;0.08;;
13240;SDS011;6687;47.790;7.322;2024-02-23T12:18:25;0.10;;;0.10;;
13240;SDS011;6687;47.790;7.322;2024-02-23T12:20:52;0.28;;;0.28;;
13240;SDS011;6687;47.790;7.322;2024-02-23T12:23:19;0.00;;;0.00;;
13240;SDS011;6687;47.790;7.322;2024-02-23T12:25:55;0.20;;;0.20;;
13240;SDS011;6687;47.790;7.322;2024-02-23T12:28:24;0.25;;;0.25;;
13240;SDS011;6687;47.790;7.322;2024-02-23T12:33:37;0.00;;;0.00;;
13240;SDS011;6687;47.790;7.322;2024-02-23T12:36:05;0.55;;;0.25;;
13240;SDS011;6687;47.790;7.322;2024-02-23T12:38:33;0.20;;;0.20;;
13240;SDS011;6687;47.790;7.322;2024-02-23T12:41:00;0.05;;;0.00;;
13240;SDS011;6687;47.790;7.322;2024-02-23T12:43:27;0.22;;;0.20;;
13240;SDS011;6687;47.790;7.322;2024-02-23T12:45:55;0.00;;;0.00;;
13240;SDS011;6687;47.790;7.322;2024-02-23T12:48:22;0.15;;;0.15;;
13240;SDS011;6687;47.790;7.322;2024-02-23T12:50:50;0.35;;;0.32;;
13240;SDS011;6687;47.790;7.322;2024-02-23T12:53:30;0.20;;;0.20;;
13240;SDS011;6687;47.790;7.322;2024-02-23T12:55:58;0.35;;;0.35;;
13240;SDS011;6687;47.790;7.322;2024-02-23T12:58:25;0.43;;;0.43;;
13240;SDS011;6687;47.790;7.322;2024-02-23T13:00:52;0.10;;;0.10;;
13240;SDS011;6687;47.790;7.322;2024-02-23T13:03:19;0.20;;;0.20;;
13240;SDS011;6687;47.790;7.322;2024-02-23T13:05:46;0.13;;;0.13;;
13240;SDS011;6687;47.790;7.322;2024-02-23T13:08:14;0.20;;;0.20;;
13240;SDS011;6687;47.790;7.322;2024-02-23T13:10:41;0.20;;;0.20;;
13240;SDS011;6687;47.790;7.322;2024-02-23T13:13:07;1.02;;;0.30;;
13240;SDS011;6687;47.790;7.322;2024-02-23T13:15:34;0.03;;;0.03;;
13240;SDS011;6687;47.790;7.322;2024-02-23T13:18:02;0.20;;;0.20;;
13240;SDS011;6687;47.790;7.322;2024-02-23T13:20:29;0.65;;;0.40;;
13240;SDS011;6687;47.790;7.322;2024-02-23T13:22:56;0.40;;;0.40;;
13240;SDS011;6687;47.790;7.322;2024-02-23T13:25:24;0.20;;;0.20;;
13240;SDS011;6687;47.790;7.322;2024-02-23T13:27:50;0.20;;;0.10;;
13240;SDS011;6687;47.790;7.322;2024-02-23T13:30:17;0.35;;;0.22;;
13240;SDS011;6687;47.790;7.322;2024-02-23T13:32:44;0.25;;;0.15;;
13240;SDS011;6687;47.790;7.322;2024-02-23T13:35:11;0.30;;;0.10;;
13240;SDS011;6687;47.790;7.322;2024-02-23T13:37:39;0.22;;;0.15;;
13240;SDS011;6687;47.790;7.322;2024-02-23T13:40:06;0.38;;;0.20;;
13240;SDS011;6687;47.790;7.322;2024-02-23T13:42:36;0.15;;;0.15;;
13240;SDS011;6687;47.790;7.322;2024-02-23T13:45:04;0.20;;;0.20;;
13240;SDS011;6687;47.790;7.322;2024-02-23T13:47:32;0.65;;;0.20;;
13240;SDS011;6687;47.790;7.322;2024-02-23T13:49:59;0.17;;;0.17;;
13240;SDS011;6687;47.790;7.322;2024-02-23T13:52:25;0.20;;;0.20;;
13240;SDS011;6687;47.790;7.322;2024-02-23T13:54:53;0.10;;;0.10;;
13240;SDS011;6687;47.790;7.322;2024-02-23T13:57:19;0.10;;;0.10;;
13240;SDS011;6687;47.790;7.322;2024-02-23T13:59:48;0.10;;;0.10;;
13240;SDS011;6687;47.790;7.322;2024-02-23T14:02:15;0.00;;;0.00;;
13240;SDS011;6687;47.790;7.322;2024-02-23T14:04:43;0.15;;;0.10;;
13240;SDS011;6687;47.790;7.322;2024-02-23T14:07:12;0.20;;;0.20;;
13240;SDS011;6687;47.790;7.322;2024-02-23T14:09:39;0.10;;;0.10;;
13240;SDS011;6687;47.790;7.322;2024-02-23T14:12:06;0.20;;;0.20;;
13240;SDS011;6687;47.790;7.322;2024-02-23T14:14:33;0.10;;;0.10;;
13240;SDS011;6687;47.790;7.322;2024-02-23T14:17:01;0.10;;;0.10;;
13240;SDS011;6687;47.790;7.322;2024-02-23T14:19:29;0.25;;;0.13;;
13240;SDS011;6687;47.790;7.322;2024-02-23T14:21:55;0.20;;;0.20;;
13240;SDS011;6687;47.790;7.322;2024-02-23T14:24:22;0.00;;;0.00;;
13240;SDS011;6687;47.790;7.322;2024-02-23T14:26:49;0.10;;;0.10;;
13240;SDS011;6687;47.790;7.322;2024-02-23T14:29:15;0.38;;;0.38;;
13240;SDS011;6687;47.790;7.322;2024-02-23T14:31:43;0.13;;;0.13;;
13240;SDS011;6687;47.790;7.322;2024-02-23T14:34:11;0.43;;;0.30;;
13240;SDS011;6687;47.790;7.322;2024-02-23T14:36:37;0.03;;;0.03;;
13240;SDS011;6687;47.790;7.322;2024-02-23T14:39:04;0.10;;;0.10;;
13240;SDS011;6687;47.790;7.322;2024-02-23T14:41:31;0.10;;;0.10;;
13240;SDS011;6687;47.790;7.322;2024-02-23T14:43:57;0.20;;;0.20;;
13240;SDS011;6687;47.790;7.322;2024-02-23T14:46:24;0.15;;;0.15;;
13240;SDS011;6687;47.790;7.322;2024-02-23T14:48:51;0.10;;;0.10;;
13240;SDS011;6687;47.790;7.322;2024-02-23T14:51:20;0.20;;;0.20;;
13240;SDS011;6687;47.790;7.322;2024-02-23T14:53:47;0.38;;;0.38;;
13240;SDS011;6687;47.790;7.322;2024-02-23T14:56:13;0.10;;;0.10;;
13240;SDS011;6687;47.790;7.322;2024-02-23T14:58:40;0.20;;;0.10;;
13240;SDS011;6687;47.790;7.322;2024-02-23T15:01:07;0.05;;;0.05;;
13240;SDS011;6687;47.790;7.322;2024-02-23T15:03:33;0.20;;;0.20;;
13240;SDS011;6687;47.790;7.322;2024-02-23T15:06:00;0.90;;;0.10;;
13240;SDS011;6687;47.790;7.322;2024-02-23T15:08:29;0.15;;;0.15;;
13240;SDS011;6687;47.790;7.322;2024-02-23T15:10:56;0.00;;;0.00;;
13240;SDS011;6687;47.790;7.322;2024-02-23T15:13:22;0.95;;;0.20;;
13240;SDS011;6687;47.790;7.322;2024-02-23T15:15:50;0.10;;;0.10;;
13240;SDS011;6687;47.790;7.322;2024-02-23T15:18:17;0.00;;;0.00;;
13240;SDS011;6687;47.790;7.322;2024-02-23T15:20:44;0.10;;;0.08;;
13240;SDS011;6687;47.790;7.322;2024-02-23T15:23:11;0.10;;;0.10;;
13240;SDS011;6687;47.790;7.322;2024-02-23T15:25:39;0.10;;;0.10;;
13240;SDS011;6687;47.790;7.322;2024-02-23T15:28:06;0.52;;;0.38;;
13240;SDS011;6687;47.790;7.322;2024-02-23T15:30:32;0.30;;;0.30;;
13240;SDS011;6687;47.790;7.322;2024-02-23T15:32:59;0.03;;;0.03;;
13240;SDS011;6687;47.790;7.322;2024-02-23T15:35:26;0.32;;;0.20;;
13240;SDS011;6687;47.790;7.322;2024-02-23T15:37:52;0.25;;;0.22;;
13240;SDS011;6687;47.790;7.322;2024-02-23T15:40:19;0.20;;;0.20;;
13240;SDS011;6687;47.790;7.322;2024-02-23T15:42:47;0.20;;;0.13;;
13240;SDS011;6687;47.790;7.322;2024-02-23T15:45:14;0.20;;;0.20;;
13240;SDS011;6687;47.790;7.322;2024-02-23T15:47:42;0.10;;;0.10;;
13240;SDS011;6687;47.790;7.322;2024-02-23T15:50:09;0.20;;;0.20;;
13240;SDS011;6687;47.790;7.322;2024-02-23T15:52:36;0.32;;;0.10;;
13240;SDS011;6687;47.790;7.322;2024-02-23T15:55:03;0.20;;;0.20;;
13240;SDS011;6687;47.790;7.322;2024-02-23T15:57:30;0.25;;;0.25;;
13240;SDS011;6687;47.790;7.322;2024-02-23T15:59:58;0.43;;;0.28;;
13240;SDS011;6687;47.790;7.322;2024-02-23T16:02:25;1.13;;;0.40;;
13240;SDS011;6687;47.790;7.322;2024-02-23T16:04:51;0.35;;;0.35;;
13240;SDS011;6687;47.790;7.322;2024-02-23T16:07:18;0.45;;;0.40;;
13240;SDS011;6687;47.790;7.322;2024-02-23T16:09:45;0.30;;;0.30;;
13240;SDS011;6687;47.790;7.322;2024-02-23T16:12:12;0.50;;;0.50;;
13240;SDS011;6687;47.790;7.322;2024-02-23T16:14:39;0.32;;;0.32;;
13240;SDS011;6687;47.790;7.322;2024-02-23T16:17:07;0.47;;;0.40;;
13240;SDS011;6687;47.790;7.322;2024-02-23T16:19:34;0.20;;;0.20;;
13240;SDS011;6687;47.790;7.322;2024-02-23T16:22:01;0.03;;;0.03;;
13240;SDS011;6687;47.790;7.322;2024-02-23T16:24:28;0.28;;;0.28;;
13240;SDS011;6687;47.790;7.322;2024-02-23T16:26:55;0.00;;;0.00;;
13240;SDS011;6687;47.790;7.322;2024-02-23T16:29:22;0.10;;;0.10;;
13240;SDS011;6687;47.790;7.322;2024-02-23T16:31:49;0.30;;;0.30;;
13240;SDS011;6687;47.790;7.322;2024-02-23T16:34:17;0.10;;;0.10;;
13240;SDS011;6687;47.790;7.322;2024-02-23T16:36:43;0.40;;;0.32;;
13240;SDS011;6687;47.790;7.322;2024-02-23T16:39:10;0.20;;;0.20;;
13240;SDS011;6687;47.790;7.322;2024-02-23T16:41:37;0.00;;;0.00;;
13240;SDS011;6687;47.790;7.322;2024-02-23T16:44:04;0.20;;;0.20;;
13240;SDS011;6687;47.790;7.322;2024-02-23T16:46:30;0.10;;;0.10;;
13240;SDS011;6687;47.790;7.322;2024-02-23T16:48:58;0.32;;;0.32;;
13240;SDS011;6687;47.790;7.322;2024-02-23T16:51:26;0.10;;;0.10;;
13240;SDS011;6687;47.790;7.322;2024-02-23T16:53:55;0.40;;;0.30;;
13240;SDS011;6687;47.790;7.322;2024-02-23T16:56:21;0.10;;;0.10;;
13240;SDS011;6687;47.790;7.322;2024-02-23T16:58:50;0.30;;;0.30;;
13240;SDS011;6687;47.790;7.322;2024-02-23T17:01:17;0.38;;;0.38;;
13240;SDS011;6687;47.790;7.322;2024-02-23T17:03:44;0.20;;;0.20;;
13240;SDS011;6687;47.790;7.322;2024-02-23T17:06:11;0.08;;;0.08;;
13240;SDS011;6687;47.790;7.322;2024-02-23T17:08:39;0.20;;;0.20;;
13240;SDS011;6687;47.790;7.322;2024-02-23T17:11:06;0.52;;;0.47;;
13240;SDS011;6687;47.790;7.322;2024-02-23T17:13:33;0.52;;;0.47;;
13240;SDS011;6687;47.790;7.322;2024-02-23T17:15:59;0.40;;;0.40;;
13240;SDS011;6687;47.790;7.322;2024-02-23T17:18:26;0.70;;;0.70;;
13240;SDS011;6687;47.790;7.322;2024-02-23T17:20:53;0.47;;;0.47;;
13240;SDS011;6687;47.790;7.322;2024-02-23T17:23:19;0.95;;;0.77;;
13240;SDS011;6687;47.790;7.322;2024-02-23T17:25:47;5.70;;;2.83;;
13240;SDS011;6687;47.790;7.322;2024-02-23T17:28:15;4.13;;;2.10;;
13240;SDS011;6687;47.790;7.322;2024-02-23T17:30:41;2.72;;;2.20;;
13240;SDS011;6687;47.790;7.322;2024-02-23T17:33:08;3.45;;;2.30;;
13240;SDS011;6687;47.790;7.322;2024-02-23T17:35:35;3.42;;;1.92;;
13240;SDS011;6687;47.790;7.322;2024-02-23T17:38:01;1.38;;;1.33;;
13240;SDS011;6687;47.790;7.322;2024-02-23T17:40:29;1.88;;;1.77;;
13240;SDS011;6687;47.790;7.322;2024-02-23T17:42:57;1.60;;;1.50;;
13240;SDS011;6687;47.790;7.322;2024-02-23T17:45:24;1.35;;;1.30;;
13240;SDS011;6687;47.790;7.322;2024-02-23T17:47:51;1.50;;;1.40;;
13240;SDS011;6687;47.790;7.322;2024-02-23T17:50:19;2.83;;;1.83;;
13240;SDS011;6687;47.790;7.322;2024-02-23T17:52:46;2.10;;;1.90;;
13240;SDS011;6687;47.790;7.322;2024-02-23T17:55:13;3.42;;;1.83;;
13240;SDS011;6687;47.790;7.322;2024-02-23T17:57:40;1.73;;;1.63;;
13240;SDS011;6687;47.790;7.322;2024-02-23T18:00:08;1.75;;;1.63;;
13240;SDS011;6687;47.790;7.322;2024-02-23T18:02:35;2.40;;;1.48;;
13240;SDS011;6687;47.790;7.322;2024-02-23T18:05:02;1.63;;;1.10;;
13240;SDS011;6687;47.790;7.322;2024-02-23T18:07:29;1.15;;;1.05;;
13240;SDS011;6687;47.790;7.322;2024-02-23T18:09:56;2.70;;;1.80;;
13240;SDS011;6687;47.790;7.322;2024-02-23T18:12:22;1.25;;;1.15;;
13240;SDS011;6687;47.790;7.322;2024-02-23T18:14:49;0.90;;;0.90;;
13240;SDS011;6687;47.790;7.322;2024-02-23T18:17:17;0.63;;;0.63;;
13240;SDS011;6687;47.790;7.322;2024-02-23T18:19:44;1.42;;;1.33;;
13240;SDS011;6687;47.790;7.322;2024-02-23T18:22:12;2.40;;;1.88;;
13240;SDS011;6687;47.790;7.322;2024-02-23T18:24:39;1.23;;;0.95;;
13240;SDS011;6687;47.790;7.322;2024-02-23T18:27:05;0.70;;;0.70;;
13240;SDS011;6687;47.790;7.322;2024-02-23T18:29:32;1.45;;;0.77;;
13240;SDS011;6687;47.790;7.322;2024-02-23T18:31:59;0.95;;;0.93;;
13240;SDS011;6687;47.790;7.322;2024-02-23T18:34:27;1.67;;;0.93;;
13240;SDS011;6687;47.790;7.322;2024-02-23T18:36:54;0.55;;;0.55;;
13240;SDS011;6687;47.790;7.322;2024-02-23T18:39:21;0.52;;;0.52;;
13240;SDS011;6687;47.790;7.322;2024-02-23T18:41:47;0.95;;;0.93;;
13240;SDS011;6687;47.790;7.322;2024-02-23T18:44:14;0.95;;;0.75;;
13240;SDS011;6687;47.790;7.322;2024-02-23T18:46:42;0.85;;;0.77;;
13240;SDS011;6687;47.790;7.322;2024-02-23T18:49:08;2.58;;;0.98;;
13240;SDS011;6687;47.790;7.322;2024-02-23T18:51:36;0.80;;;0.80;;
13240;SDS011;6687;47.790;7.322;2024-02-23T18:54:04;0.77;;;0.77;;
13240;SDS011;6687;47.790;7.322;2024-02-23T18:56:31;0.80;;;0.80;;
13240;SDS011;6687;47.790;7.322;2024-02-23T18:58:58;0.52;;;0.52;;
13240;SDS011;6687;47.790;7.322;2024-02-23T19:01:24;0.90;;;0.60;;
13240;SDS011;6687;47.790;7.322;2024-02-23T19:03:51;0.73;;;0.73;;
13240;SDS011;6687;47.790;7.322;2024-02-23T19:06:18;1.70;;;1.05;;
13240;SDS011;6687;47.790;7.322;2024-02-23T19:08:46;0.93;;;0.80;;
13240;SDS011;6687;47.790;7.322;2024-02-23T19:11:12;1.42;;;1.33;;
13240;SDS011;6687;47.790;7.322;2024-02-23T19:13:39;1.52;;;1.45;;
13240;SDS011;6687;47.790;7.322;2024-02-23T19:16:10;1.92;;;1.73;;
13240;SDS011;6687;47.790;7.322;2024-02-23T19:18:38;1.58;;;1.48;;
13240;SDS011;6687;47.790;7.322;2024-02-23T19:21:06;2.28;;;2.08;;
13240;SDS011;6687;47.790;7.322;2024-02-23T19:23:33;1.95;;;1.27;;
13240;SDS011;6687;47.790;7.322;2024-02-23T19:26:02;1.55;;;1.30;;
13240;SDS011;6687;47.790;7.322;2024-02-23T19:28:28;1.58;;;1.33;;
13240;SDS011;6687;47.790;7.322;2024-02-23T19:30:55;1.88;;;1.52;;
13240;SDS011;6687;47.790;7.322;2024-02-23T19:33:22;1.52;;;1.42;;
13240;SDS011;6687;47.790;7.322;2024-02-23T19:35:49;1.38;;;1.38;;
13240;SDS011;6687;47.790;7.322;2024-02-23T19:38:16;1.73;;;1.58;;
13240;SDS011;6687;47.790;7.322;2024-02-23T19:40:42;0.68;;;0.68;;
13240;SDS011;6687;47.790;7.322;2024-02-23T19:43:10;1.33;;;1.30;;
13240;SDS011;6687;47.790;7.322;2024-02-23T19:45:37;1.42;;;1.17;;
13240;SDS011;6687;47.790;7.322;2024-02-23T19:48:04;0.30;;;0.30;;
13240;SDS011;6687;47.790;7.322;2024-02-23T19:50:31;0.32;;;0.32;;
13240;SDS011;6687;47.790;7.322;2024-02-23T19:52:58;0.43;;;0.40;;
13240;SDS011;6687;47.790;7.322;2024-02-23T19:55:24;0.20;;;0.20;;
13240;SDS011;6687;47.790;7.322;2024-02-23T19:57:51;0.10;;;0.10;;
13240;SDS011;6687;47.790;7.322;2024-02-23T20:00:21;0.10;;;0.05;;
13240;SDS011;6687;47.790;7.322;2024-02-23T20:02:48;0.10;;;0.10;;
13240;SDS011;6687;47.790;7.322;2024-02-23T20:05:14;0.10;;;0.10;;
13240;SDS011;6687;47.790;7.322;2024-02-23T20:07:41;0.38;;;0.38;;
13240;SDS011;6687;47.790;7.322;2024-02-23T20:10:08;0.30;;;0.30;;
13240;SDS011;6687;47.790;7.322;2024-02-23T20:12:37;0.47;;;0.30;;
13240;SDS011;6687;47.790;7.322;2024-02-23T20:15:04;0.28;;;0.20;;
13240;SDS011;6687;47.790;7.322;2024-02-23T20:17:33;0.00;;;0.00;;
13240;SDS011;6687;47.790;7.322;2024-02-23T20:19:59;0.10;;;0.10;;
13240;SDS011;6687;47.790;7.322;2024-02-23T20:22:26;0.15;;;0.15;;
13240;SDS011;6687;47.790;7.322;2024-02-23T20:24:53;0.15;;;0.15;;
13240;SDS011;6687;47.790;7.322;2024-02-23T20:27:19;0.98;;;0.30;;
13240;SDS011;6687;47.790;7.322;2024-02-23T20:29:47;0.13;;;0.10;;
13240;SDS011;6687;47.790;7.322;2024-02-23T20:32:13;0.00;;;0.00;;
13240;SDS011;6687;47.790;7.322;2024-02-23T20:34:41;0.03;;;0.03;;
13240;SDS011;6687;47.790;7.322;2024-02-23T20:37:08;0.32;;;0.32;;
13240;SDS011;6687;47.790;7.322;2024-02-23T20:39:36;0.10;;;0.10;;
13240;SDS011;6687;47.790;7.322;2024-02-23T20:42:02;0.30;;;0.30;;
13240;SDS011;6687;47.790;7.322;2024-02-23T20:44:31;0.10;;;0.10;;
13240;SDS011;6687;47.790;7.322;2024-02-23T20:46:58;0.30;;;0.30;;
13240;SDS011;6687;47.790;7.322;2024-02-23T20:49:24;0.20;;;0.10;;
13240;SDS011;6687;47.790;7.322;2024-02-23T20:51:52;0.03;;;0.03;;
13240;SDS011;6687;47.790;7.322;2024-02-23T20:54:21;0.20;;;0.13;;
13240;SDS011;6687;47.790;7.322;2024-02-23T20:56:48;0.10;;;0.10;;
13240;SDS011;6687;47.790;7.322;2024-02-23T20:59:14;0.22;;;0.20;;
13240;SDS011;6687;47.790;7.322;2024-02-23T21:01:41;0.10;;;0.10;;
13240;SDS011;6687;47.790;7.322;2024-02-23T21:04:08;0.20;;;0.20;;
13240;SDS011;6687;47.790;7.322;2024-02-23T21:06:35;0.10;;;0.10;;
13240;SDS011;6687;47.790;7.322;2024-02-23T21:09:03;1.00;;;0.35;;
13240;SDS011;6687;47.790;7.322;2024-02-23T21:11:30;0.22;;;0.22;;
13240;SDS011;6687;47.790;7.322;2024-02-23T21:13:57;0.22;;;0.22;;
13240;SDS011;6687;47.790;7.322;2024-02-23T21:16:24;0.10;;;0.10;;
13240;SDS011;6687;47.790;7.322;2024-02-23T21:18:50;0.30;;;0.30;;
13240;SDS011;6687;47.790;7.322;2024-02-23T21:21:17;0.10;;;0.10;;